Time;durP1;ratioP1;P1;durP2;ratioP2;P2;SDS_P1;SDS_P2;PMS_P1;PMS_P2;Temp;Humidity;BMP_temperature;BMP_pressure;BME280_temperature;BME280_humidity;BME280_pressure;Samples;Min_cycle;Max_cycle;Signal;HPM_P1;HPM_P2
2023/03/26 00:00:57;;;;;;;10.63;2.50;;;9.50;99.90;;;;;;5047657;28;20115;-74
2023/03/26 00:03:23;;;;;;;13.80;2.87;;;9.50;99.90;;;;;;5049117;28;20025;-74
2023/03/26 00:05:49;;;;;;;18.83;2.93;;;9.60;99.90;;;;;;5046006;28;20097;-75
2023/03/26 00:08:15;;;;;;;17.48;3.33;;;9.60;99.90;;;;;;5041468;28;20083;-75
2023/03/26 00:10:42;;;;;;;15.23;3.27;;;9.60;99.90;;;;;;5048479;28;20028;-75
2023/03/26 00:13:08;;;;;;;24.23;3.83;;;9.70;99.90;;;;;;5048839;28;20028;-74
2023/03/26 00:15:35;;;;;;;18.93;3.33;;;9.70;99.90;;;;;;5039021;28;20044;-74
2023/03/26 00:18:01;;;;;;;24.63;4.83;;;9.70;99.90;;;;;;5049024;28;20037;-74
2023/03/26 00:20:28;;;;;;;22.02;3.67;;;9.70;99.90;;;;;;5046777;28;20027;-74
2023/03/26 00:22:55;;;;;;;21.40;4.80;;;9.70;99.90;;;;;;5048978;28;20029;-74
2023/03/26 00:25:22;;;;;;;24.92;5.15;;;9.80;99.90;;;;;;5048504;28;20040;-74
2023/03/26 00:27:48;;;;;;;28.10;6.05;;;9.70;99.90;;;;;;5036705;28;20018;-74
2023/03/26 00:30:15;;;;;;;17.17;3.83;;;9.80;99.90;;;;;;5048133;28;20505;-74
2023/03/26 00:32:41;;;;;;;25.38;4.68;;;9.80;99.90;;;;;;5038015;28;20108;-74
2023/03/26 00:35:07;;;;;;;28.97;6.47;;;9.70;99.90;;;;;;5029930;28;20443;-74
2023/03/26 00:37:32;;;;;;;23.50;4.75;;;9.70;99.90;;;;;;5029719;28;20079;-74
2023/03/26 00:40:03;;;;;;;26.47;5.80;;;9.70;99.90;;;;;;5029791;28;20079;-74
2023/03/26 00:42:30;;;;;;;31.90;6.13;;;9.60;99.90;;;;;;5029465;28;20164;-74
2023/03/26 00:44:56;;;;;;;22.88;4.60;;;9.60;99.90;;;;;;5042685;28;20025;-74
2023/03/26 00:47:23;;;;;;;28.67;6.83;;;9.60;99.90;;;;;;5029585;28;20030;-74
2023/03/26 00:49:49;;;;;;;24.40;6.93;;;9.60;99.90;;;;;;5048515;28;20554;-74
2023/03/26 00:52:17;;;;;;;25.53;6.00;;;9.60;99.90;;;;;;5049349;28;20100;-74
2023/03/26 00:54:44;;;;;;;26.70;5.65;;;9.60;99.90;;;;;;5048650;28;20024;-74
2023/03/26 00:57:11;;;;;;;35.58;8.32;;;9.60;99.90;;;;;;5052240;28;20057;-74
2023/03/26 00:59:38;;;;;;;32.80;6.70;;;9.60;99.90;;;;;;5040079;28;20017;-74
2023/03/26 01:02:05;;;;;;;25.87;6.37;;;9.60;99.90;;;;;;5052305;28;20065;-74
2023/03/26 01:04:33;;;;;;;28.00;5.87;;;9.60;99.90;;;;;;5052552;28;20100;-74
2023/03/26 01:07:08;;;;;;;28.80;5.57;;;9.60;99.90;;;;;;5037549;28;20034;-74
2023/03/26 01:09:41;;;;;;;37.13;7.78;;;9.60;99.90;;;;;;5051157;28;20022;-74
2023/03/26 01:12:10;;;;;;;31.35;8.95;;;9.60;99.90;;;;;;5051396;28;20093;-74
2023/03/26 01:14:36;;;;;;;29.57;5.73;;;9.50;99.90;;;;;;5052952;28;20021;-74
2023/03/26 01:17:05;;;;;;;38.80;7.50;;;9.50;99.90;;;;;;5052405;28;20032;-74
2023/03/26 01:19:32;;;;;;;31.23;6.60;;;9.50;99.90;;;;;;5052249;28;20021;-74
2023/03/26 01:21:59;;;;;;;31.73;6.37;;;9.50;99.90;;;;;;5052023;28;20529;-74
2023/03/26 01:24:25;;;;;;;34.47;5.97;;;9.60;99.90;;;;;;5052624;28;20025;-74
2023/03/26 01:27:03;;;;;;;32.92;6.75;;;9.60;99.90;;;;;;5051407;28;20072;-74
2023/03/26 01:29:43;;;;;;;41.60;6.38;;;9.60;99.90;;;;;;5052214;28;20085;-73
2023/03/26 01:32:51;;;;;;;29.07;6.63;;;9.60;99.90;;;;;;5020701;28;20018;-74
2023/03/26 01:35:32;;;;;;;25.43;5.03;;;9.70;99.90;;;;;;4972130;28;20059;-74
2023/03/26 01:38:17;;;;;;;35.80;6.15;;;9.70;99.90;;;;;;4972547;28;20122;-74
2023/03/26 01:40:59;;;;;;;33.73;7.07;;;9.70;99.90;;;;;;4971529;28;20535;-74
2023/03/26 01:43:30;;;;;;;26.02;5.40;;;9.70;99.90;;;;;;4972151;28;20041;-74
2023/03/26 01:46:01;;;;;;;33.60;7.70;;;9.60;99.90;;;;;;4972759;28;20404;-74
2023/03/26 01:48:35;;;;;;;32.05;6.00;;;9.60;99.90;;;;;;4972280;28;20041;-74
2023/03/26 01:51:01;;;;;;;30.38;6.45;;;9.60;99.90;;;;;;4972688;28;20065;-74
2023/03/26 01:53:27;;;;;;;27.73;6.38;;;9.60;99.90;;;;;;4971806;28;20045;-73
2023/03/26 01:56:00;;;;;;;27.42;6.22;;;9.60;99.90;;;;;;4955859;28;20051;-74
2023/03/26 01:58:38;;;;;;;33.03;7.53;;;9.60;99.90;;;;;;4971850;28;20034;-74
2023/03/26 02:01:03;;;;;;;31.97;6.60;;;9.70;99.90;;;;;;4971742;28;20059;-74
2023/03/26 02:03:32;;;;;;;34.20;6.70;;;9.70;99.90;;;;;;4971729;28;20554;-74
2023/03/26 02:06:08;;;;;;;30.48;6.10;;;9.70;99.90;;;;;;4971161;28;20035;-74
2023/03/26 02:08:38;;;;;;;36.85;9.27;;;9.70;99.90;;;;;;4970891;28;20524;-74
2023/03/26 02:11:11;;;;;;;34.67;7.85;;;9.70;99.90;;;;;;4981274;28;20045;-74
2023/03/26 02:13:38;;;;;;;28.05;7.55;;;9.70;99.90;;;;;;5028013;28;20025;-73
2023/03/26 02:16:06;;;;;;;36.38;7.28;;;9.70;99.90;;;;;;5031087;28;20036;-73
2023/03/26 02:18:35;;;;;;;41.77;7.00;;;9.70;99.90;;;;;;5032950;28;20096;-74
2023/03/26 02:21:04;;;;;;;26.13;6.10;;;9.70;99.90;;;;;;5032303;28;20072;-73
2023/03/26 02:23:34;;;;;;;32.45;6.88;;;9.80;99.90;;;;;;5031765;28;20071;-74
2023/03/26 02:26:01;;;;;;;29.52;6.75;;;9.80;99.90;;;;;;5032385;28;20029;-74
2023/03/26 02:28:27;;;;;;;35.22;7.43;;;9.80;99.90;;;;;;5032161;28;20056;-74
2023/03/26 02:30:56;;;;;;;26.55;7.32;;;9.80;99.90;;;;;;5042677;28;20120;-74
2023/03/26 02:33:22;;;;;;;31.83;7.43;;;9.80;99.90;;;;;;5033961;28;20018;-74
2023/03/26 02:35:47;;;;;;;28.90;6.68;;;9.80;99.90;;;;;;5031535;28;20021;-74
2023/03/26 02:38:13;;;;;;;33.97;6.55;;;9.80;99.90;;;;;;5031669;28;20359;-74
2023/03/26 02:40:40;;;;;;;30.40;7.03;;;9.90;99.90;;;;;;5031896;28;20022;-74
2023/03/26 02:43:06;;;;;;;27.00;6.32;;;9.90;99.90;;;;;;5031955;28;20018;-74
2023/03/26 02:45:31;;;;;;;31.42;7.80;;;9.90;99.90;;;;;;5030347;28;20073;-74
2023/03/26 02:47:59;;;;;;;38.90;7.93;;;9.90;99.90;;;;;;5030534;28;20056;-74
2023/03/26 02:50:25;;;;;;;35.58;6.32;;;9.90;99.90;;;;;;5031853;28;20032;-74
2023/03/26 02:52:51;;;;;;;42.43;8.20;;;9.90;99.90;;;;;;5031408;28;20089;-74
2023/03/26 02:55:16;;;;;;;28.40;7.67;;;9.90;99.90;;;;;;5031918;28;20022;-74
2023/03/26 02:57:42;;;;;;;29.42;8.32;;;9.90;99.90;;;;;;5030662;28;20021;-74
2023/03/26 03:00:10;;;;;;;31.85;8.82;;;9.90;99.90;;;;;;5031185;28;20487;-74
2023/03/26 03:02:37;;;;;;;47.72;11.18;;;9.90;99.90;;;;;;5031458;28;20041;-74
2023/03/26 03:05:04;;;;;;;39.40;9.10;;;9.90;99.90;;;;;;5031433;28;20021;-74
2023/03/26 03:07:30;;;;;;;35.23;9.73;;;9.90;99.90;;;;;;5031326;28;20417;-75
2023/03/26 03:10:01;;;;;;;39.15;8.60;;;9.90;99.90;;;;;;5031428;28;20502;-75
2023/03/26 03:12:27;;;;;;;32.10;9.63;;;9.90;99.90;;;;;;5031506;28;20367;-75
2023/03/26 03:14:52;;;;;;;39.95;9.65;;;9.90;99.90;;;;;;5030713;28;20470;-75
2023/03/26 03:17:19;;;;;;;45.97;10.37;;;9.90;99.90;;;;;;5031058;28;20037;-75
2023/03/26 03:19:45;;;;;;;37.88;10.05;;;9.90;99.90;;;;;;5032660;28;20040;-75
2023/03/26 03:22:11;;;;;;;32.65;9.68;;;9.90;99.90;;;;;;5035301;28;20029;-75
2023/03/26 03:24:37;;;;;;;35.70;8.88;;;10.00;99.90;;;;;;5032748;28;20033;-75
2023/03/26 03:27:03;;;;;;;39.13;12.07;;;10.00;99.90;;;;;;5034862;28;20026;-75
2023/03/26 03:29:29;;;;;;;32.40;9.77;;;9.90;99.90;;;;;;5033023;28;20073;-75
2023/03/26 03:31:54;;;;;;;36.73;9.43;;;10.00;99.90;;;;;;5048772;28;20074;-75
2023/03/26 03:34:20;;;;;;;42.22;9.40;;;10.00;99.90;;;;;;5048081;28;20210;-75
2023/03/26 03:36:47;;;;;;;34.60;8.43;;;10.00;99.90;;;;;;5041138;28;20025;-75
2023/03/26 03:39:13;;;;;;;36.10;10.25;;;10.00;99.90;;;;;;5050167;28;20036;-75
2023/03/26 03:41:39;;;;;;;32.05;8.93;;;10.00;99.90;;;;;;5049244;28;20016;-75
2023/03/26 03:44:05;;;;;;;41.80;8.98;;;10.00;99.90;;;;;;5049640;28;20167;-75
2023/03/26 03:46:30;;;;;;;38.13;7.75;;;10.10;99.90;;;;;;5049671;28;20512;-75
2023/03/26 03:48:56;;;;;;;38.77;7.33;;;10.00;99.90;;;;;;5038044;28;20756;-75
2023/03/26 03:51:22;;;;;;;35.53;7.32;;;10.00;99.90;;;;;;5029719;28;20017;-75
2023/03/26 03:53:49;;;;;;;33.88;8.38;;;10.00;99.90;;;;;;5040923;28;20048;-75
2023/03/26 03:56:17;;;;;;;36.87;7.80;;;10.00;99.90;;;;;;5049403;28;20021;-75
2023/03/26 03:58:45;;;;;;;28.40;6.50;;;10.00;99.90;;;;;;5037437;28;20025;-75
2023/03/26 04:01:12;;;;;;;31.15;7.22;;;10.00;99.90;;;;;;5030186;28;20756;-75
2023/03/26 04:03:38;;;;;;;35.47;6.03;;;10.00;99.90;;;;;;5042958;28;20025;-75
2023/03/26 04:06:09;;;;;;;24.83;6.30;;;10.00;99.90;;;;;;5030032;28;20405;-75
2023/03/26 04:08:35;;;;;;;26.23;5.67;;;10.00;99.90;;;;;;5030349;28;20128;-75
2023/03/26 04:11:01;;;;;;;31.23;6.30;;;10.00;99.90;;;;;;5035694;28;20525;-75
2023/03/26 04:13:26;;;;;;;34.07;6.67;;;10.00;99.90;;;;;;5036471;28;20029;-75
2023/03/26 04:15:52;;;;;;;31.52;6.50;;;10.00;99.90;;;;;;5036900;28;20044;-75
2023/03/26 04:18:19;;;;;;;33.97;6.45;;;10.00;99.90;;;;;;5050619;28;20470;-74
2023/03/26 04:20:48;;;;;;;28.53;5.17;;;10.00;99.90;;;;;;5036590;28;20017;-75
2023/03/26 04:23:15;;;;;;;26.90;6.25;;;10.00;99.90;;;;;;5049238;28;20021;-74
2023/03/26 04:25:47;;;;;;;22.08;5.60;;;10.00;99.90;;;;;;5049461;28;20387;-75
2023/03/26 04:28:29;;;;;;;24.63;5.45;;;10.00;99.90;;;;;;5046940;28;20564;-74
2023/03/26 04:30:59;;;;;;;31.37;6.33;;;10.00;99.90;;;;;;5052908;28;20028;-74
2023/03/26 04:33:27;;;;;;;26.02;4.32;;;10.00;99.90;;;;;;5048818;28;20017;-74
2023/03/26 04:35:53;;;;;;;27.63;4.88;;;10.00;99.90;;;;;;5032563;28;20385;-75
2023/03/26 04:38:19;;;;;;;31.67;6.67;;;10.00;99.90;;;;;;5034121;28;20501;-74
2023/03/26 04:40:46;;;;;;;26.58;5.28;;;10.00;99.90;;;;;;5021324;28;20026;-75
2023/03/26 04:43:13;;;;;;;30.98;4.32;;;10.00;99.90;;;;;;5034008;28;20070;-74
2023/03/26 04:45:39;;;;;;;23.30;4.53;;;10.00;99.90;;;;;;5036163;28;20390;-74
2023/03/26 04:48:06;;;;;;;32.95;5.75;;;10.00;99.90;;;;;;5039437;28;20021;-75
2023/03/26 04:50:32;;;;;;;32.77;5.83;;;10.00;99.90;;;;;;5037035;28;20025;-74
2023/03/26 04:52:57;;;;;;;28.23;4.77;;;10.00;99.90;;;;;;5040510;28;20485;-74
2023/03/26 04:55:28;;;;;;;21.37;4.90;;;10.00;99.90;;;;;;5037198;28;20103;-74
2023/03/26 04:57:58;;;;;;;25.52;6.63;;;10.00;99.90;;;;;;5037093;28;20482;-74
2023/03/26 05:00:24;;;;;;;29.48;5.63;;;10.00;99.90;;;;;;5037195;28;20029;-74
2023/03/26 05:02:52;;;;;;;29.90;5.40;;;10.00;99.90;;;;;;5039543;28;20033;-75
2023/03/26 05:05:17;;;;;;;30.55;4.63;;;10.00;99.90;;;;;;5037786;28;20039;-75
2023/03/26 05:07:43;;;;;;;31.83;4.53;;;10.00;99.90;;;;;;5039779;28;20029;-75
2023/03/26 05:10:12;;;;;;;23.15;4.78;;;10.00;99.90;;;;;;5036975;28;20026;-75
2023/03/26 05:12:37;;;;;;;36.42;5.32;;;10.00;99.90;;;;;;5039670;28;20014;-75
2023/03/26 05:15:04;;;;;;;31.40;4.97;;;10.00;99.90;;;;;;5038817;28;20409;-73
2023/03/26 05:17:30;;;;;;;23.33;3.58;;;10.00;99.90;;;;;;5038888;28;20026;-74
2023/03/26 05:19:56;;;;;;;27.47;4.37;;;10.00;99.90;;;;;;5038221;28;20079;-74
2023/03/26 05:22:22;;;;;;;27.33;4.53;;;10.00;99.90;;;;;;5039159;28;20022;-74
2023/03/26 05:24:47;;;;;;;29.95;5.88;;;10.00;99.90;;;;;;5038503;28;20036;-74
2023/03/26 05:27:15;;;;;;;27.33;5.47;;;10.00;99.90;;;;;;5039573;28;20029;-74
2023/03/26 05:29:42;;;;;;;29.88;5.47;;;10.00;99.90;;;;;;5039019;28;20470;-74
2023/03/26 05:32:08;;;;;;;31.02;4.72;;;10.00;99.90;;;;;;5051738;28;20024;-74
2023/03/26 05:34:34;;;;;;;35.58;5.53;;;10.00;99.90;;;;;;5043825;28;20025;-74
2023/03/26 05:37:02;;;;;;;24.87;4.90;;;9.90;99.90;;;;;;5052662;28;20036;-74
2023/03/26 05:39:28;;;;;;;26.47;4.47;;;9.90;99.90;;;;;;5038705;28;20095;-75
2023/03/26 05:41:54;;;;;;;28.00;4.90;;;9.90;99.90;;;;;;5051557;28;20021;-74
2023/03/26 05:44:20;;;;;;;32.83;5.00;;;9.90;99.90;;;;;;5051662;28;20021;-75
2023/03/26 05:46:45;;;;;;;31.60;4.43;;;9.90;99.90;;;;;;5051629;28;20489;-75
2023/03/26 05:49:11;;;;;;;26.80;5.28;;;9.90;99.90;;;;;;5051961;28;20021;-75
2023/03/26 05:51:36;;;;;;;31.33;5.25;;;9.90;99.90;;;;;;5050788;28;20303;-74
2023/03/26 05:54:02;;;;;;;26.30;4.93;;;9.90;99.90;;;;;;5051829;28;20025;-74
2023/03/26 05:56:28;;;;;;;24.92;5.65;;;9.80;99.90;;;;;;5051819;28;20486;-74
2023/03/26 05:58:55;;;;;;;28.80;5.50;;;9.80;99.90;;;;;;5037298;28;20022;-74
2023/03/26 06:01:21;;;;;;;31.37;7.53;;;9.80;99.90;;;;;;5039682;28;20079;-75
2023/03/26 06:03:47;;;;;;;23.87;5.67;;;9.70;99.90;;;;;;5039392;28;20053;-75
2023/03/26 06:06:16;;;;;;;23.93;6.00;;;9.70;99.90;;;;;;5052064;28;20425;-75
2023/03/26 06:08:45;;;;;;;29.40;6.10;;;9.70;99.90;;;;;;5036841;28;20108;-75
2023/03/26 06:11:11;;;;;;;33.73;5.50;;;9.70;99.90;;;;;;5032259;28;20405;-74
2023/03/26 06:13:37;;;;;;;28.77;5.37;;;9.70;99.90;;;;;;5034222;28;20105;-75
2023/03/26 06:16:04;;;;;;;22.60;4.97;;;9.70;99.90;;;;;;5049777;28;20033;-75
2023/03/26 06:18:29;;;;;;;26.50;5.53;;;9.70;99.90;;;;;;5050977;28;20018;-75
2023/03/26 06:20:55;;;;;;;25.70;4.85;;;9.70;99.90;;;;;;5051195;28;20017;-75
2023/03/26 06:23:22;;;;;;;30.27;5.17;;;9.70;99.90;;;;;;5052060;28;20090;-75
2023/03/26 06:25:47;;;;;;;30.20;4.87;;;9.80;99.90;;;;;;5052761;28;20022;-75
2023/03/26 06:28:14;;;;;;;27.73;6.18;;;9.80;99.90;;;;;;5050785;28;20025;-75
2023/03/26 06:30:40;;;;;;;26.27;5.60;;;9.80;99.90;;;;;;5050425;28;20413;-75
2023/03/26 06:33:06;;;;;;;25.10;6.03;;;9.80;99.90;;;;;;5043119;28;20394;-75
2023/03/26 06:35:32;;;;;;;27.92;5.22;;;9.80;99.90;;;;;;5032024;28;20032;-75
2023/03/26 06:37:58;;;;;;;28.00;5.60;;;9.80;99.90;;;;;;5033679;28;20538;-74
2023/03/26 06:40:24;;;;;;;31.92;5.65;;;9.80;99.90;;;;;;5045537;28;20029;-75
2023/03/26 06:42:49;;;;;;;36.13;6.22;;;9.80;99.90;;;;;;5045335;28;20107;-75
2023/03/26 06:45:15;;;;;;;28.43;6.80;;;9.80;99.90;;;;;;5050647;28;20155;-75
2023/03/26 06:47:40;;;;;;;29.80;5.83;;;9.80;99.90;;;;;;5048560;28;20497;-75
2023/03/26 06:50:07;;;;;;;33.85;6.45;;;9.80;99.90;;;;;;5039598;28;20021;-75
2023/03/26 06:52:32;;;;;;;26.33;5.35;;;9.80;99.90;;;;;;5048545;28;20019;-75
2023/03/26 06:54:58;;;;;;;23.50;5.15;;;9.80;99.90;;;;;;5050282;28;20108;-74
2023/03/26 06:57:24;;;;;;;34.05;6.47;;;9.80;99.90;;;;;;5050064;28;20104;-76
2023/03/26 06:59:49;;;;;;;22.98;6.25;;;9.80;99.90;;;;;;5048555;28;20021;-75
2023/03/26 07:02:15;;;;;;;34.22;6.28;;;9.90;99.90;;;;;;5048563;28;20082;-75
2023/03/26 07:04:40;;;;;;;37.83;5.60;;;9.90;99.90;;;;;;5044161;28;20030;-75
2023/03/26 07:07:06;;;;;;;34.08;5.70;;;9.90;99.90;;;;;;5044094;28;20036;-75
2023/03/26 07:09:32;;;;;;;34.55;6.10;;;10.00;99.90;;;;;;5050867;28;20104;-75
2023/03/26 07:11:58;;;;;;;34.10;5.73;;;10.00;99.90;;;;;;5035722;28;20025;-75
2023/03/26 07:14:24;;;;;;;23.58;6.05;;;10.00;99.90;;;;;;5049549;28;20029;-72
2023/03/26 07:16:50;;;;;;;28.90;6.47;;;10.00;99.90;;;;;;5048838;28;20036;-73
2023/03/26 07:19:16;;;;;;;28.27;6.80;;;10.10;99.90;;;;;;5049862;28;20035;-73
2023/03/26 07:21:42;;;;;;;22.20;6.40;;;10.10;99.90;;;;;;5049256;28;20480;-72
2023/03/26 07:24:12;;;;;;;35.88;8.15;;;10.10;99.90;;;;;;5049234;28;20532;-72
2023/03/26 07:26:43;;;;;;;26.10;7.32;;;10.10;99.90;;;;;;5049658;28;20025;-72
2023/03/26 07:29:26;;;;;;;34.05;7.32;;;10.10;99.90;;;;;;5048710;28;20029;-74
2023/03/26 07:32:34;;;;;;;30.63;7.28;;;10.10;99.90;;;;;;5049713;28;20017;-72
2023/03/26 07:35:06;;;;;;;30.48;6.60;;;10.10;99.90;;;;;;5029111;28;20486;-72
2023/03/26 07:38:03;;;;;;;28.20;7.55;;;10.10;99.90;;;;;;5029968;28;20029;-72
2023/03/26 07:40:55;;;;;;;28.00;6.45;;;10.10;99.90;;;;;;5028917;28;20045;-72
2023/03/26 07:43:42;;;;;;;28.10;5.88;;;10.10;99.90;;;;;;5042853;28;20025;-72
2023/03/26 07:46:12;;;;;;;23.50;6.40;;;10.10;99.90;;;;;;5030584;28;20029;-72
2023/03/26 07:48:41;;;;;;;22.90;6.00;;;10.10;99.90;;;;;;5049341;28;20040;-73
2023/03/26 07:51:08;;;;;;;27.90;6.70;;;10.00;99.90;;;;;;5048932;28;20028;-73
2023/03/26 07:53:34;;;;;;;25.17;5.80;;;10.10;99.90;;;;;;5049594;28;20382;-73
2023/03/26 07:56:38;;;;;;;31.63;6.72;;;10.10;99.90;;;;;;5048741;28;20017;-73
2023/03/26 07:59:26;;;;;;;21.50;6.35;;;10.20;99.90;;;;;;5047849;28;20037;-73
2023/03/26 08:02:16;;;;;;;25.02;5.68;;;10.20;99.90;;;;;;5047670;28;20045;-73
2023/03/26 08:04:47;;;;;;;34.80;5.60;;;10.20;99.90;;;;;;5020687;28;20032;-73
2023/03/26 08:07:33;;;;;;;31.73;6.47;;;10.20;99.90;;;;;;5029712;28;20084;-74
2023/03/26 08:10:38;;;;;;;25.42;5.72;;;10.30;99.90;;;;;;5029613;28;20021;-73
2023/03/26 08:13:15;;;;;;;25.65;4.95;;;10.30;99.90;;;;;;4940431;28;20027;-74
2023/03/26 08:16:04;;;;;;;23.37;5.77;;;10.30;99.90;;;;;;4949829;28;20031;-74
2023/03/26 08:18:53;;;;;;;27.13;5.72;;;10.30;99.90;;;;;;4950104;28;20035;-73
2023/03/26 08:21:25;;;;;;;26.20;6.75;;;10.30;99.90;;;;;;4934209;29;20030;-74
2023/03/26 08:24:19;;;;;;;33.10;6.97;;;10.40;99.90;;;;;;4950012;28;20027;-73
2023/03/26 08:27:02;;;;;;;24.73;5.85;;;10.50;99.90;;;;;;4950289;28;20031;-74
2023/03/26 08:29:34;;;;;;;26.83;6.78;;;10.50;99.90;;;;;;4952111;28;20584;-73
2023/03/26 08:32:02;;;;;;;30.38;6.85;;;10.50;99.90;;;;;;4969669;28;20043;-74
2023/03/26 08:34:28;;;;;;;28.52;7.40;;;10.50;99.90;;;;;;4950635;28;20033;-73
2023/03/26 08:36:53;;;;;;;25.80;9.55;;;10.50;99.90;;;;;;4938916;28;20031;-71
2023/03/26 08:39:21;;;;;;;27.58;8.73;;;10.50;99.90;;;;;;4951194;28;20039;-73
2023/03/26 08:42:18;;;;;;;23.15;8.20;;;10.60;99.90;;;;;;4962106;28;20093;-73
2023/03/26 08:45:08;;;;;;;27.42;6.68;;;10.60;99.90;;;;;;5030547;28;20038;-73
2023/03/26 08:47:49;;;;;;;21.58;7.43;;;10.60;99.90;;;;;;5037870;28;20056;-73
2023/03/26 08:51:09;;;;;;;24.13;7.05;;;10.60;99.90;;;;;;5036018;28;20022;-73
2023/03/26 08:54:05;;;;;;;22.08;6.68;;;10.60;99.90;;;;;;4972727;28;20025;-73
2023/03/26 08:56:48;;;;;;;26.77;7.03;;;10.50;99.90;;;;;;4968645;28;20042;-73
2023/03/26 08:59:27;;;;;;;27.67;7.83;;;10.50;99.90;;;;;;4979876;28;20037;-73
2023/03/26 09:02:04;;;;;;;19.67;7.57;;;10.40;99.90;;;;;;4977201;28;20042;-73
2023/03/26 09:05:07;;;;;;;25.75;7.35;;;10.50;99.90;;;;;;4976098;28;20474;-72
2023/03/26 09:08:09;;;;;;;23.67;7.60;;;10.50;99.90;;;;;;4976914;28;20039;-73
2023/03/26 09:10:38;;;;;;;25.52;9.20;;;10.50;99.90;;;;;;4970893;28;20468;-73
2023/03/26 09:13:41;;;;;;;24.52;8.43;;;10.50;99.90;;;;;;4974978;28;20027;-73
2023/03/26 09:16:35;;;;;;;17.95;6.43;;;10.60;99.90;;;;;;4959383;28;20022;-73
2023/03/26 09:19:22;;;;;;;;;;;10.60;99.90;;;;;;4978247;28;20532;-73
2023/03/26 09:22:20;;;;;;;25.20;7.40;;;10.50;99.90;;;;;;4980532;28;19920;-73
2023/03/26 09:24:55;;;;;;;22.40;6.63;;;10.60;99.90;;;;;;4978201;28;20563;-73
2023/03/26 09:27:35;;;;;;;21.52;7.70;;;10.60;99.90;;;;;;5004015;28;20382;-73
2023/03/26 09:30:35;;;;;;;22.10;7.70;;;10.60;99.90;;;;;;5041897;28;20446;-73
2023/03/26 09:33:38;;;;;;;20.65;7.13;;;10.60;99.90;;;;;;5038557;28;20044;-73
2023/03/26 09:36:22;;;;;;;19.02;6.75;;;10.60;99.90;;;;;;5039187;28;20057;-73
2023/03/26 09:39:07;;;;;;;18.02;6.75;;;10.60;99.90;;;;;;5038782;28;20021;-73
2023/03/26 09:42:07;;;;;;;13.05;5.47;;;10.60;99.90;;;;;;5033136;28;20018;-73
2023/03/26 09:44:51;;;;;;;18.48;6.63;;;10.70;99.90;;;;;;5032777;28;20031;-73
2023/03/26 09:47:42;;;;;;;19.88;6.50;;;10.70;99.90;;;;;;5032964;28;20065;-73
2023/03/26 09:50:32;;;;;;;22.02;6.40;;;10.70;99.90;;;;;;5021701;28;20293;-74
2023/03/26 09:52:57;;;;;;;16.63;7.13;;;10.70;99.90;;;;;;5032814;28;20083;-73
2023/03/26 09:55:49;;;;;;;19.00;5.70;;;10.70;99.90;;;;;;5031863;28;20029;-72
2023/03/26 09:58:24;;;;;;;19.27;6.68;;;10.80;99.90;;;;;;5022215;28;20036;-72
2023/03/26 10:01:05;;;;;;;23.50;5.38;;;10.80;99.90;;;;;;5033058;28;20044;-73
2023/03/26 10:03:34;;;;;;;19.10;8.93;;;10.80;99.90;;;;;;5032050;28;20033;-73
2023/03/26 10:06:24;;;;;;;25.60;11.77;;;10.70;99.90;;;;;;5033805;28;20379;-73
2023/03/26 10:09:00;;;;;;;26.15;12.60;;;10.70;99.90;;;;;;5032361;28;20041;-73
2023/03/26 10:11:47;;;;;;;21.13;9.45;;;10.70;99.90;;;;;;5032920;28;20026;-73
2023/03/26 10:14:33;;;;;;;21.38;11.45;;;10.60;99.90;;;;;;5031231;28;20382;-74
2023/03/26 10:17:09;;;;;;;16.63;8.05;;;10.60;99.90;;;;;;5032095;28;20036;-73
2023/03/26 10:19:55;;;;;;;16.70;7.03;;;10.70;99.90;;;;;;5029358;28;20176;-73
2023/03/26 10:22:30;;;;;;;20.05;7.28;;;10.70;99.90;;;;;;5032518;28;20034;-73
2023/03/26 10:25:35;;;;;;;16.35;7.20;;;10.70;99.90;;;;;;5033221;28;20024;-73
2023/03/26 10:28:37;;;;;;;20.15;7.18;;;10.80;99.90;;;;;;5030104;28;20029;-73
2023/03/26 10:31:15;;;;;;;15.73;6.88;;;10.80;99.90;;;;;;5036631;28;20021;-73
2023/03/26 10:34:10;;;;;;;15.55;6.95;;;10.80;99.90;;;;;;5033731;28;20017;-73
2023/03/26 10:37:04;;;;;;;22.23;6.75;;;10.90;99.90;;;;;;5030613;28;20028;-73
2023/03/26 10:39:41;;;;;;;9.73;5.85;;;11.00;99.90;;;;;;5033239;28;20034;-72
2023/03/26 10:42:27;;;;;;;15.57;6.28;;;11.10;99.90;;;;;;5041197;28;20021;-71
2023/03/26 10:45:05;;;;;;;16.30;5.78;;;11.30;99.90;;;;;;5050112;28;20092;-73
2023/03/26 10:47:54;;;;;;;13.95;6.10;;;11.40;99.90;;;;;;5033130;28;20033;-73
2023/03/26 10:50:30;;;;;;;14.02;6.38;;;11.50;99.90;;;;;;5031428;28;20043;-74
2023/03/26 10:53:06;;;;;;;11.32;4.25;;;11.50;99.90;;;;;;5031733;28;20017;-73
2023/03/26 10:55:37;;;;;;;14.43;5.13;;;11.70;99.90;;;;;;5032234;28;20079;-74
2023/03/26 10:58:17;;;;;;;9.98;4.90;;;11.80;99.90;;;;;;5034147;28;20034;-73
2023/03/26 11:00:54;;;;;;;10.93;5.57;;;11.90;99.90;;;;;;5030410;28;20124;-73
2023/03/26 11:03:55;;;;;;;10.70;4.88;;;12.00;99.90;;;;;;5032091;28;20100;-71
2023/03/26 11:06:44;;;;;;;11.20;4.70;;;12.00;99.90;;;;;;5032023;28;20052;-72
2023/03/26 11:09:27;;;;;;;11.05;4.07;;;11.90;99.90;;;;;;5032232;28;20119;-71
2023/03/26 11:12:14;;;;;;;5.95;2.83;;;11.90;99.90;;;;;;5030477;28;20024;-73
2023/03/26 11:14:49;;;;;;;9.65;3.08;;;11.80;99.90;;;;;;5034007;28;20029;-73
2023/03/26 11:17:41;;;;;;;12.95;3.25;;;11.60;99.90;;;;;;5053529;28;20057;-73
2023/03/26 11:20:14;;;;;;;8.27;2.15;;;11.50;99.90;;;;;;5032319;28;20025;-73
2023/03/26 11:22:57;;;;;;;10.40;2.58;;;11.40;99.90;;;;;;5029216;28;20355;-73
2023/03/26 11:25:26;;;;;;;12.23;2.70;;;11.40;99.90;;;;;;5044314;28;20025;-74
2023/03/26 11:28:16;;;;;;;8.95;2.65;;;11.30;99.90;;;;;;5029921;28;20105;-74
2023/03/26 11:30:44;;;;;;;4.10;1.63;;;11.20;99.90;;;;;;5041393;28;20021;-73
2023/03/26 11:33:25;;;;;;;5.70;2.70;;;11.10;99.90;;;;;;5049182;28;20021;-73
2023/03/26 11:35:57;;;;;;;11.63;4.72;;;11.00;99.90;;;;;;5039035;28;20028;-73
2023/03/26 11:38:46;;;;;;;9.57;5.75;;;10.90;99.90;;;;;;5035425;28;20112;-72
2023/03/26 11:41:21;;;;;;;10.25;5.90;;;10.90;99.90;;;;;;5016546;28;20490;-73
2023/03/26 11:43:52;;;;;;;12.35;8.27;;;10.80;99.90;;;;;;5032857;28;20096;-72
2023/03/26 11:46:22;;;;;;;11.25;7.47;;;10.80;99.90;;;;;;5033816;28;20108;-72
2023/03/26 11:48:52;;;;;;;13.30;7.00;;;10.80;99.90;;;;;;5032822;28;20022;-73
2023/03/26 11:51:27;;;;;;;17.27;8.95;;;10.80;99.90;;;;;;5035013;28;20446;-73
2023/03/26 11:53:53;;;;;;;15.45;10.55;;;10.70;99.90;;;;;;5030499;28;20049;-76
2023/03/26 11:56:41;;;;;;;17.20;9.77;;;10.70;99.90;;;;;;5037709;28;20044;-74
2023/03/26 11:59:29;;;;;;;14.70;9.35;;;10.80;99.90;;;;;;5048147;28;20021;-73
2023/03/26 12:01:58;;;;;;;22.65;10.23;;;10.80;99.90;;;;;;5048787;28;20056;-74
2023/03/26 12:04:34;;;;;;;16.85;9.52;;;10.80;99.90;;;;;;5040054;28;20037;-73
2023/03/26 12:07:06;;;;;;;23.17;10.45;;;10.80;99.90;;;;;;5036745;28;20128;-73
2023/03/26 12:09:31;;;;;;;19.85;9.57;;;10.70;99.90;;;;;;5048134;28;20032;-73
2023/03/26 12:12:03;;;;;;;16.30;7.85;;;10.70;99.90;;;;;;5043413;28;20025;-73
2023/03/26 12:14:33;;;;;;;15.10;9.10;;;10.60;99.90;;;;;;5037914;28;20501;-74
2023/03/26 12:17:08;;;;;;;12.88;8.32;;;10.50;99.90;;;;;;5034087;28;20052;-74
2023/03/26 12:19:43;;;;;;;18.70;8.02;;;10.40;99.90;;;;;;5031959;28;20490;-73
2023/03/26 12:22:38;;;;;;;15.45;8.02;;;10.40;99.90;;;;;;5033738;28;20105;-73
2023/03/26 12:25:24;;;;;;;18.25;8.32;;;10.30;99.90;;;;;;5032415;28;20087;-73
2023/03/26 12:28:03;;;;;;;24.33;7.57;;;10.20;99.90;;;;;;5041573;28;20047;-73
2023/03/26 12:30:37;;;;;;;16.02;7.78;;;10.30;99.90;;;;;;5043693;28;20749;-73
2023/03/26 12:33:15;;;;;;;16.50;7.53;;;10.20;99.90;;;;;;5031919;28;20057;-73
2023/03/26 12:35:41;;;;;;;15.80;7.03;;;10.20;99.90;;;;;;5032980;28;20032;-73
2023/03/26 12:38:31;;;;;;;23.15;8.07;;;10.20;99.90;;;;;;5037159;28;20025;-73
2023/03/26 12:41:07;;;;;;;13.23;6.80;;;10.20;99.90;;;;;;5025934;28;20767;-73
2023/03/26 12:43:48;;;;;;;19.02;6.22;;;10.20;99.90;;;;;;5034219;28;20025;-73
2023/03/26 12:46:19;;;;;;;16.42;6.47;;;10.30;99.90;;;;;;5036439;28;20025;-73
2023/03/26 12:48:46;;;;;;;16.08;6.15;;;10.30;99.90;;;;;;5024072;28;20093;-73
2023/03/26 12:51:26;;;;;;;13.60;4.68;;;10.30;99.90;;;;;;5025148;28;20013;-73
2023/03/26 12:54:31;;;;;;;12.63;5.70;;;10.40;99.90;;;;;;5046017;28;20049;-73
2023/03/26 12:57:19;;;;;;;17.00;6.97;;;10.60;99.90;;;;;;5003307;28;20544;-73
2023/03/26 13:00:13;;;;;;;24.83;8.68;;;10.70;99.90;;;;;;5041433;28;20040;-73
2023/03/26 13:03:07;;;;;;;22.05;7.63;;;10.70;99.90;;;;;;5046042;28;20041;-72
2023/03/26 13:05:54;;;;;;;14.30;6.13;;;10.90;99.90;;;;;;5038259;28;20029;-73
2023/03/26 13:08:29;;;;;;;16.63;5.68;;;10.90;99.90;;;;;;5045884;28;20452;-72
2023/03/26 13:11:32;;;;;;;16.08;6.50;;;10.90;99.90;;;;;;5030234;28;20013;-73
2023/03/26 13:14:37;;;;;;;16.55;5.95;;;10.80;99.90;;;;;;5048140;28;20352;-72